Lähistön asemien METAR-raportit

 

EFJY - Jyvaskyla (mil/C, Finland
Etäisyys Sääasemalta: E 40km
Päivitetty: 22/02/2019 09:50
Selkeätä
Selkeätä
 Tuulen suunta IKa
Tuuli: IKa 7 km/h
Lämpötila: -13°C
Tuulen purevuus: -18°C
Kastepiste: -17°C
Ilmankosteus: 72%
Ilmanpaine: 1038 hPa
Yhteenveto: Selkeätä
Näkyvyys: Enemmän Kuin 10 km
2019/02/22 09:50 EFJY 220950Z 12004KT CAVOK M13/M17 Q1038
EFKU - Kuopio (mil/Civ), Finland
Etäisyys Sääasemalta: IKo 106km
Päivitetty: 22/02/2019 09:50
Selkeätä
Selkeätä
 Tuulen suunta IKa
Tuuli: IKa 2 km/h
Lämpötila: -12°C
Kastepiste: -15°C
Ilmankosteus: 79%
Ilmanpaine: 1038 hPa
Yhteenveto: Selkeätä
Näkyvyys: Enemmän Kuin 10 km
2019/02/22 09:50 EFKU 220950Z 12001KT CAVOK M12/M15 Q1038
EFHA - Halli (fin-Afb), Finland
Etäisyys Sääasemalta: ELo 113km
Päivitetty: 22/02/2019 09:50
Selkeätä
Selkeätä
 Tuulen suunta varies
Tuuli: varies 4 km/h
Lämpötila: -11°C
Kastepiste: -14°C
Ilmankosteus: 79%
Ilmanpaine: 1040 hPa
Yhteenveto: Selkeätä
Näkyvyys: Enemmän Kuin 10 km
2019/02/22 09:50 EFHA 220950Z VRB02KT CAVOK M11/M14 Q1040
 
EFMI - Mikkeli, Finland
Etäisyys Sääasemalta: EKa 140km
Päivitetty: 22/02/2019 09:50
Selkeätä
Selkeätä
 Tuulen suunta LLo
Tuuli: LLo 4 km/h
Lämpötila: -9°C
Kastepiste: -15°C
Ilmankosteus: 62%
Ilmanpaine: 1039 hPa
Yhteenveto: Selkeätä
Näkyvyys: Enemmän Kuin 10 km
2019/02/22 09:50 EFMI 220950Z AUTO 24002KT CAVOK M09/M15 Q1039
EFSI - Seinajoki-Ilmajo, Finland
Etäisyys Sääasemalta: L 150km
Päivitetty: 22/02/2019 09:50
Selkeätä
Selkeätä
 Tuulen suunta E
Tuuli: E 9 km/h
Lämpötila: -8°C
Tuulen purevuus: -12°C
Kastepiste: -12°C
Ilmankosteus: 73%
Ilmanpaine: 1039 hPa
Yhteenveto: Selkeätä
Näkyvyys: Enemmän Kuin 10 km
2019/02/22 09:50 EFSI 220950Z AUTO 19005KT 130V240 CAVOK M08/M12 Q1039
EFKK - Kruunupyy, Finland
Etäisyys Sääasemalta: Lu 170km
Päivitetty: 22/02/2019 09:50
Selkeätä
Selkeätä
 Tuulen suunta E
Tuuli: E 22 km/h
Lämpötila: -9°C
Tuulen purevuus: -17°C
Kastepiste: -12°C
Ilmankosteus: 79%
Ilmanpaine: 1037 hPa
Yhteenveto: Selkeätä
Näkyvyys: Enemmän Kuin 10 km
2019/02/22 09:50 EFKK 220950Z 18012KT CAVOK M09/M12 Q1037
 
EFSA - Savonlinna (aut), Finland
Etäisyys Sääasemalta: IKa 186km
Päivitetty: 22/02/2019 09:50
Selkeätä
Selkeätä
 Tuulen suunta L
Tuuli: L 7 km/h
Lämpötila: -9°C
Tuulen purevuus: -13°C
Kastepiste: -15°C
Ilmankosteus: 62%
Ilmanpaine: 1038 hPa
Yhteenveto: Selkeätä
Näkyvyys: Enemmän Kuin 10 km
2019/02/22 09:50 EFSA 220950Z AUTO 26004KT 220V290 CAVOK M09/M15 Q1038
EFTP - Tampere/Pirkkala, Finland
Etäisyys Sääasemalta: Lo 187km
Päivitetty: 22/02/2019 09:50
Selkeätä
Selkeätä
 Tuulen suunta LLo
Tuuli: LLo 6 km/h
Lämpötila: -9°C
Kastepiste: -13°C
Ilmankosteus: 73%
Ilmanpaine: 1041 hPa
Yhteenveto: Selkeätä
Näkyvyys: Enemmän Kuin 10 km
2019/02/22 09:50 EFTP 220950Z 24003KT CAVOK M09/M13 Q1041
EFKI - Kajaani, Finland
Etäisyys Sääasemalta: PKo 192km
Päivitetty: 22/02/2019 09:50
Selkeätä
Selkeätä
 Tuulen suunta LLo
Tuuli: LLo 6 km/h
Lämpötila: -13°C
Kastepiste: -15°C
Ilmankosteus: 85%
Ilmanpaine: 1035 hPa
Yhteenveto: Selkeätä
Näkyvyys: Enemmän Kuin 10 km
2019/02/22 09:50 EFKI 220950Z AUTO 25003KT 220V280 CAVOK M13/M15 Q1035
 
EFJO - Joensuu, Finland
Etäisyys Sääasemalta: I 196km
Päivitetty: 22/02/2019 09:50
Selkeätä
Selkeätä
 Tuulen suunta LLu
Tuuli: LLu 7 km/h
Lämpötila: -12°C
Tuulen purevuus: -17°C
Kastepiste: -16°C
Ilmankosteus: 72%
Ilmanpaine: 1037 hPa
Yhteenveto: Selkeätä
Näkyvyys: Enemmän Kuin 10 km
2019/02/22 09:50 EFJO 220950Z 29004KT CAVOK M12/M16 Q1037